TimeCDT,TemperatureF,Dew PointF,Humidity,Sea Level PressureIn,VisibilityMPH,Wind Direction,Wind SpeedMPH,Gust SpeedMPH,PrecipitationIn,Events,Conditions,WindDirDegrees,DateUTC
12:15 AM,46.4,39.2,76,30.07,10.0,NNE,3.5,-,N/A,,Clear,30,2013-05-07 05:15:00
12:35 AM,46.4,39.2,76,30.07,10.0,Calm,Calm,-,N/A,,Clear,0,2013-05-07 05:35:00
12:55 AM,44.6,39.2,81,30.07,10.0,Calm,Calm,-,N/A,,Clear,0,2013-05-07 05:55:00
1:15 AM,44.6,39.2,81,30.07,10.0,North,3.5,-,N/A,,Clear,350,2013-05-07 06:15:00
1:35 AM,42.8,37.4,81,30.06,10.0,Calm,Calm,-,N/A,,Clear,0,2013-05-07 06:35:00
1:55 AM,42.8,37.4,81,30.06,10.0,Calm,Calm,-,N/A,,Clear,0,2013-05-07 06:55:00
2:15 AM,42.8,39.2,87,30.06,10.0,Calm,Calm,-,N/A,,Clear,0,2013-05-07 07:15:00
2:35 AM,42.8,39.2,87,30.06,10.0,NNW,3.5,-,N/A,,Clear,340,2013-05-07 07:35:00
2:55 AM,44.6,39.2,81,30.06,10.0,NNW,4.6,-,N/A,,Clear,340,2013-05-07 07:55:00
3:15 AM,44.6,39.2,81,30.06,10.0,NNW,3.5,-,N/A,,Clear,340,2013-05-07 08:15:00
3:35 AM,44.6,39.2,81,30.06,10.0,North,5.8,-,N/A,,Clear,350,2013-05-07 08:35:00
3:55 AM,44.6,39.2,81,30.05,10.0,NNW,4.6,-,N/A,,Clear,340,2013-05-07 08:55:00
4:15 AM,42.8,37.4,81,30.05,10.0,Calm,Calm,-,N/A,,Clear,0,2013-05-07 09:15:00
4:35 AM,42.8,37.4,81,30.05,10.0,Calm,Calm,-,N/A,,Clear,0,2013-05-07 09:35:00
5:15 AM,42.8,37.4,81,30.06,10.0,Calm,Calm,-,N/A,,Clear,0,2013-05-07 10:15:00
5:35 AM,41.0,39.2,93,30.06,10.0,NNW,3.5,-,N/A,,Clear,340,2013-05-07 10:35:00
5:55 AM,42.8,39.2,87,30.06,10.0,NNW,3.5,-,N/A,,Clear,340,2013-05-07 10:55:00
6:15 AM,42.8,39.2,87,30.07,10.0,Calm,Calm,-,N/A,,Clear,0,2013-05-07 11:15:00
6:35 AM,44.6,39.2,81,30.07,10.0,NNW,4.6,-,N/A,,Clear,340,2013-05-07 11:35:00
6:55 AM,46.4,42.8,87,30.08,10.0,Calm,Calm,-,N/A,,Clear,0,2013-05-07 11:55:00
7:15 AM,48.2,42.8,82,30.09,10.0,North,3.5,-,N/A,,Clear,350,2013-05-07 12:15:00
7:35 AM,51.8,42.8,71,30.09,10.0,NE,3.5,-,N/A,,Clear,50,2013-05-07 12:35:00
7:55 AM,53.6,41.0,62,30.10,10.0,ENE,3.5,-,N/A,,Clear,60,2013-05-07 12:55:00
8:15 AM,55.4,41.0,58,30.10,10.0,East,5.8,-,N/A,,Clear,90,2013-05-07 13:15:00
8:35 AM,55.4,39.2,54,30.10,10.0,East,3.5,-,N/A,,Clear,100,2013-05-07 13:35:00
8:55 AM,57.2,41.0,55,30.10,10.0,ESE,4.6,-,N/A,,Clear,110,2013-05-07 13:55:00
9:15 AM,59.0,41.0,51,30.11,10.0,SE,6.9,-,N/A,,Clear,130,2013-05-07 14:15:00
9:35 AM,60.8,39.2,45,30.10,10.0,East,8.1,-,N/A,,Clear,100,2013-05-07 14:35:00
9:55 AM,59.0,41.0,51,30.10,10.0,East,9.2,-,N/A,,Clear,90,2013-05-07 14:55:00
10:15 AM,59.0,39.2,48,30.10,10.0,East,8.1,-,N/A,,Clear,90,2013-05-07 15:15:00
10:55 AM,59.0,39.2,48,30.10,10.0,East,10.4,-,N/A,,Clear,100,2013-05-07 15:55:00
11:15 AM,59.0,37.4,45,30.10,10.0,East,9.2,-,N/A,,Clear,80,2013-05-07 16:15:00
11:35 AM,60.8,37.4,42,30.10,10.0,East,9.2,-,N/A,,Clear,100,2013-05-07 16:35:00
11:55 AM,62.6,39.2,42,30.09,10.0,East,9.2,-,N/A,,Clear,100,2013-05-07 16:55:00
12:15 PM,62.6,39.2,42,30.08,10.0,East,9.2,-,N/A,,Clear,90,2013-05-07 17:15:00
12:35 PM,62.6,37.4,39,30.08,10.0,East,10.4,-,N/A,,Clear,90,2013-05-07 17:35:00
12:55 PM,62.6,39.2,42,30.08,10.0,East,10.4,-,N/A,,Clear,100,2013-05-07 17:55:00
1:15 PM,62.6,39.2,42,30.08,10.0,East,12.7,-,N/A,,Clear,90,2013-05-07 18:15:00
1:35 PM,64.4,39.2,40,30.07,10.0,East,9.2,-,N/A,,Clear,100,2013-05-07 18:35:00
1:55 PM,64.4,39.2,40,30.06,10.0,ESE,6.9,-,N/A,,Clear,110,2013-05-07 18:55:00
2:15 PM,64.4,39.2,40,30.06,10.0,East,6.9,-,N/A,,Clear,100,2013-05-07 19:15:00
2:35 PM,64.4,39.2,40,30.06,10.0,East,5.8,-,N/A,,Clear,90,2013-05-07 19:35:00
2:55 PM,66.2,39.2,37,30.05,10.0,East,5.8,-,N/A,,Clear,100,2013-05-07 19:55:00
3:15 PM,66.2,39.2,37,30.05,10.0,ESE,6.9,-,N/A,,Clear,110,2013-05-07 20:15:00
3:35 PM,66.2,39.2,37,30.04,10.0,East,8.1,-,N/A,,Clear,100,2013-05-07 20:35:00
3:55 PM,66.2,39.2,37,30.04,10.0,East,5.8,-,N/A,,Clear,100,2013-05-07 20:55:00
4:15 PM,68.0,39.2,35,30.04,10.0,East,6.9,-,N/A,,Clear,90,2013-05-07 21:15:00
4:35 PM,68.0,39.2,35,30.03,10.0,East,5.8,-,N/A,,Clear,80,2013-05-07 21:35:00
4:55 PM,68.0,37.4,33,30.03,10.0,East,5.8,-,N/A,,Clear,90,2013-05-07 21:55:00
5:15 PM,68.0,37.4,33,30.03,10.0,East,5.8,-,N/A,,Clear,100,2013-05-07 22:15:00
5:35 PM,66.2,35.6,32,30.03,10.0,East,5.8,-,N/A,,Clear,100,2013-05-07 22:35:00
5:55 PM,68.0,37.4,33,30.03,10.0,East,5.8,-,N/A,,Clear,100,2013-05-07 22:55:00
6:15 PM,68.0,37.4,33,30.03,10.0,East,4.6,-,N/A,,Clear,80,2013-05-07 23:15:00
6:35 PM,68.0,35.6,30,30.02,9.0,East,3.5,-,N/A,,Clear,80,2013-05-07 23:35:00
6:55 PM,64.4,37.4,37,30.03,10.0,SE,5.8,-,N/A,,Clear,130,2013-05-07 23:55:00
7:15 PM,62.6,35.6,37,30.03,10.0,East,5.8,-,N/A,,Clear,90,2013-05-08 00:15:00
7:35 PM,60.8,35.6,39,30.03,10.0,East,4.6,-,N/A,,Clear,100,2013-05-08 00:35:00
7:55 PM,59.0,35.6,42,30.02,10.0,East,3.5,-,N/A,,Clear,100,2013-05-08 00:55:00
8:15 PM,55.4,37.4,51,30.02,10.0,SE,5.8,-,N/A,,Clear,140,2013-05-08 01:15:00
8:35 PM,53.6,39.2,58,30.03,10.0,SE,6.9,-,N/A,,Clear,130,2013-05-08 01:35:00
8:55 PM,50.0,37.4,62,30.03,10.0,SE,4.6,-,N/A,,Clear,130,2013-05-08 01:55:00
9:15 PM,48.2,37.4,66,30.03,10.0,ESE,3.5,-,N/A,,Clear,110,2013-05-08 02:15:00
9:35 PM,50.0,37.4,62,30.03,10.0,Calm,Calm,-,N/A,,Clear,0,2013-05-08 02:35:00
9:55 PM,50.0,37.4,62,30.04,10.0,Calm,Calm,-,N/A,,Clear,0,2013-05-08 02:55:00
10:15 PM,50.0,37.4,62,30.03,10.0,ESE,3.5,-,N/A,,Clear,120,2013-05-08 03:15:00
10:35 PM,50.0,39.2,66,30.03,10.0,Calm,Calm,-,N/A,,Clear,0,2013-05-08 03:35:00
10:55 PM,51.8,37.4,58,30.03,10.0,Calm,Calm,-,N/A,,Clear,0,2013-05-08 03:55:00
11:15 PM,50.0,39.2,66,30.03,10.0,NNW,3.5,-,N/A,,Clear,330,2013-05-08 04:15:00
11:35 PM,48.2,39.2,71,30.03,10.0,NNW,4.6,-,N/A,,Clear,330,2013-05-08 04:35:00
11:55 PM,48.2,39.2,71,30.03,10.0,Calm,Calm,-,N/A,,Clear,0,2013-05-08 04:55:00